sensor_id;sensor_type;location;lat;lon;timestamp;P1;durP1;ratioP1;P2;durP2;ratioP2
15669;SDS011;18524;45.190;5.732;2022-08-01T00:03:22;2.43;;;2.10;;
15669;SDS011;18524;45.190;5.732;2022-08-01T00:08:12;2.27;;;2.10;;
15669;SDS011;18524;45.190;5.732;2022-08-01T00:13:02;2.50;;;2.30;;
15669;SDS011;18524;45.190;5.732;2022-08-01T00:17:53;2.20;;;2.00;;
15669;SDS011;18524;45.190;5.732;2022-08-01T00:22:43;2.17;;;2.07;;
15669;SDS011;18524;45.190;5.732;2022-08-01T00:27:33;2.33;;;2.20;;
15669;SDS011;18524;45.190;5.732;2022-08-01T00:32:25;4.37;;;2.60;;
15669;SDS011;18524;45.190;5.732;2022-08-01T00:37:15;2.80;;;2.60;;
15669;SDS011;18524;45.190;5.732;2022-08-01T00:42:06;2.50;;;2.30;;
15669;SDS011;18524;45.190;5.732;2022-08-01T00:46:57;2.47;;;2.27;;
15669;SDS011;18524;45.190;5.732;2022-08-01T00:51:48;2.30;;;2.20;;
15669;SDS011;18524;45.190;5.732;2022-08-01T00:56:38;2.57;;;2.37;;
15669;SDS011;18524;45.190;5.732;2022-08-01T01:01:29;4.30;;;2.40;;
15669;SDS011;18524;45.190;5.732;2022-08-01T01:11:25;2.47;;;2.27;;
15669;SDS011;18524;45.190;5.732;2022-08-01T01:16:19;2.13;;;2.03;;
15669;SDS011;18524;45.190;5.732;2022-08-01T01:31:40;2.77;;;2.43;;
15669;SDS011;18524;45.190;5.732;2022-08-01T01:36:34;2.30;;;2.10;;
15669;SDS011;18524;45.190;5.732;2022-08-01T01:41:26;2.27;;;2.17;;
15669;SDS011;18524;45.190;5.732;2022-08-01T01:46:18;2.30;;;2.10;;
15669;SDS011;18524;45.190;5.732;2022-08-01T01:51:13;2.20;;;2.10;;
15669;SDS011;18524;45.190;5.732;2022-08-01T01:56:05;2.00;;;1.90;;
15669;SDS011;18524;45.190;5.732;2022-08-01T02:00:56;2.57;;;2.43;;
15669;SDS011;18524;45.190;5.732;2022-08-01T02:05:48;3.30;;;2.40;;
15669;SDS011;18524;45.190;5.732;2022-08-01T02:10:41;2.67;;;2.47;;
15669;SDS011;18524;45.190;5.732;2022-08-01T02:15:54;2.57;;;2.43;;
15669;SDS011;18524;45.190;5.732;2022-08-01T02:20:45;2.57;;;2.40;;
15669;SDS011;18524;45.190;5.732;2022-08-01T02:30:34;2.27;;;2.17;;
15669;SDS011;18524;45.190;5.732;2022-08-01T02:35:27;2.27;;;2.17;;
15669;SDS011;18524;45.190;5.732;2022-08-01T02:40:19;2.60;;;2.50;;
15669;SDS011;18524;45.190;5.732;2022-08-01T02:45:09;2.87;;;2.67;;
15669;SDS011;18524;45.190;5.732;2022-08-01T02:50:02;2.87;;;2.63;;
15669;SDS011;18524;45.190;5.732;2022-08-01T02:54:54;2.90;;;2.70;;
15669;SDS011;18524;45.190;5.732;2022-08-01T02:59:47;2.70;;;2.50;;
15669;SDS011;18524;45.190;5.732;2022-08-01T03:04:39;2.97;;;2.77;;
15669;SDS011;18524;45.190;5.732;2022-08-01T03:09:32;2.80;;;2.43;;
15669;SDS011;18524;45.190;5.732;2022-08-01T03:14:26;2.77;;;2.67;;
15669;SDS011;18524;45.190;5.732;2022-08-01T03:19:18;2.60;;;2.40;;
15669;SDS011;18524;45.190;5.732;2022-08-01T03:24:10;2.70;;;2.50;;
15669;SDS011;18524;45.190;5.732;2022-08-01T03:29:04;2.87;;;2.67;;
15669;SDS011;18524;45.190;5.732;2022-08-01T03:33:56;2.90;;;2.70;;
15669;SDS011;18524;45.190;5.732;2022-08-01T03:38:46;2.60;;;2.50;;
15669;SDS011;18524;45.190;5.732;2022-08-01T03:43:46;3.40;;;3.20;;
15669;SDS011;18524;45.190;5.732;2022-08-01T03:48:43;2.97;;;2.77;;
15669;SDS011;18524;45.190;5.732;2022-08-01T03:53:41;2.90;;;2.70;;
15669;SDS011;18524;45.190;5.732;2022-08-01T03:58:32;3.07;;;2.80;;
15669;SDS011;18524;45.190;5.732;2022-08-01T04:03:23;3.00;;;2.80;;
15669;SDS011;18524;45.190;5.732;2022-08-01T04:08:14;2.50;;;2.40;;
15669;SDS011;18524;45.190;5.732;2022-08-01T04:13:05;2.97;;;2.70;;
15669;SDS011;18524;45.190;5.732;2022-08-01T04:17:55;2.80;;;2.60;;
15669;SDS011;18524;45.190;5.732;2022-08-01T04:22:45;2.90;;;2.70;;
15669;SDS011;18524;45.190;5.732;2022-08-01T04:27:37;3.83;;;3.53;;
15669;SDS011;18524;45.190;5.732;2022-08-01T04:32:31;3.57;;;3.27;;
15669;SDS011;18524;45.190;5.732;2022-08-01T04:37:24;3.23;;;3.03;;
15669;SDS011;18524;45.190;5.732;2022-08-01T04:42:15;3.97;;;3.60;;
15669;SDS011;18524;45.190;5.732;2022-08-01T04:47:06;3.70;;;3.30;;
15669;SDS011;18524;45.190;5.732;2022-08-01T04:51:57;3.00;;;2.80;;
15669;SDS011;18524;45.190;5.732;2022-08-01T04:56:50;3.30;;;3.10;;
15669;SDS011;18524;45.190;5.732;2022-08-01T05:01:40;3.23;;;2.97;;
15669;SDS011;18524;45.190;5.732;2022-08-01T05:06:31;3.43;;;2.80;;
15669;SDS011;18524;45.190;5.732;2022-08-01T05:11:21;3.77;;;3.47;;
15669;SDS011;18524;45.190;5.732;2022-08-01T05:16:12;3.40;;;3.20;;
15669;SDS011;18524;45.190;5.732;2022-08-01T05:21:02;3.13;;;2.90;;
15669;SDS011;18524;45.190;5.732;2022-08-01T05:25:52;3.70;;;3.40;;
15669;SDS011;18524;45.190;5.732;2022-08-01T05:30:43;4.23;;;3.10;;
15669;SDS011;18524;45.190;5.732;2022-08-01T05:35:33;3.83;;;3.00;;
15669;SDS011;18524;45.190;5.732;2022-08-01T05:40:23;3.10;;;2.90;;
15669;SDS011;18524;45.190;5.732;2022-08-01T05:45:14;6.07;;;3.67;;
15669;SDS011;18524;45.190;5.732;2022-08-01T05:50:04;3.17;;;2.90;;
15669;SDS011;18524;45.190;5.732;2022-08-01T05:54:55;3.03;;;2.63;;
15669;SDS011;18524;45.190;5.732;2022-08-01T05:59:45;3.00;;;2.80;;
15669;SDS011;18524;45.190;5.732;2022-08-01T06:04:36;4.70;;;4.30;;
15669;SDS011;18524;45.190;5.732;2022-08-01T06:09:26;4.70;;;4.30;;
15669;SDS011;18524;45.190;5.732;2022-08-01T06:14:17;4.00;;;3.70;;
15669;SDS011;18524;45.190;5.732;2022-08-01T06:19:07;4.03;;;3.63;;
15669;SDS011;18524;45.190;5.732;2022-08-01T06:23:57;4.10;;;3.70;;
15669;SDS011;18524;45.190;5.732;2022-08-01T06:28:48;3.87;;;3.60;;
15669;SDS011;18524;45.190;5.732;2022-08-01T06:33:38;3.93;;;3.60;;
15669;SDS011;18524;45.190;5.732;2022-08-01T06:38:28;3.33;;;3.13;;
15669;SDS011;18524;45.190;5.732;2022-08-01T06:43:19;4.00;;;3.70;;
15669;SDS011;18524;45.190;5.732;2022-08-01T06:48:09;5.43;;;3.87;;
15669;SDS011;18524;45.190;5.732;2022-08-01T06:53:00;3.80;;;3.17;;
15669;SDS011;18524;45.190;5.732;2022-08-01T06:57:51;3.77;;;3.43;;
15669;SDS011;18524;45.190;5.732;2022-08-01T07:02:42;4.13;;;3.73;;
15669;SDS011;18524;45.190;5.732;2022-08-01T07:07:33;3.53;;;3.33;;
15669;SDS011;18524;45.190;5.732;2022-08-01T07:12:23;4.47;;;4.17;;
15669;SDS011;18524;45.190;5.732;2022-08-01T07:17:13;3.40;;;3.13;;
15669;SDS011;18524;45.190;5.732;2022-08-01T07:22:04;4.77;;;4.37;;
15669;SDS011;18524;45.190;5.732;2022-08-01T07:26:54;4.23;;;3.80;;
15669;SDS011;18524;45.190;5.732;2022-08-01T07:31:47;3.70;;;3.40;;
15669;SDS011;18524;45.190;5.732;2022-08-01T07:36:37;4.10;;;3.80;;
15669;SDS011;18524;45.190;5.732;2022-08-01T07:41:28;4.20;;;3.90;;
15669;SDS011;18524;45.190;5.732;2022-08-01T07:46:18;3.93;;;3.63;;
15669;SDS011;18524;45.190;5.732;2022-08-01T07:51:09;4.03;;;3.60;;
15669;SDS011;18524;45.190;5.732;2022-08-01T07:56:00;4.20;;;3.90;;
15669;SDS011;18524;45.190;5.732;2022-08-01T08:00:52;4.37;;;3.97;;
15669;SDS011;18524;45.190;5.732;2022-08-01T08:05:42;10.00;;;4.40;;
15669;SDS011;18524;45.190;5.732;2022-08-01T08:10:33;5.13;;;3.83;;
15669;SDS011;18524;45.190;5.732;2022-08-01T08:15:24;3.37;;;3.07;;
15669;SDS011;18524;45.190;5.732;2022-08-01T08:20:14;3.40;;;3.10;;
15669;SDS011;18524;45.190;5.732;2022-08-01T08:25:05;4.23;;;3.90;;
15669;SDS011;18524;45.190;5.732;2022-08-01T08:29:56;3.77;;;3.47;;
15669;SDS011;18524;45.190;5.732;2022-08-01T08:34:47;3.93;;;3.63;;
15669;SDS011;18524;45.190;5.732;2022-08-01T08:39:37;4.10;;;3.70;;
15669;SDS011;18524;45.190;5.732;2022-08-01T08:44:28;3.97;;;3.67;;
15669;SDS011;18524;45.190;5.732;2022-08-01T08:49:20;4.10;;;3.80;;
15669;SDS011;18524;45.190;5.732;2022-08-01T08:54:16;4.43;;;4.03;;
15669;SDS011;18524;45.190;5.732;2022-08-01T08:59:08;3.37;;;3.10;;
15669;SDS011;18524;45.190;5.732;2022-08-01T09:04:02;3.67;;;3.43;;
15669;SDS011;18524;45.190;5.732;2022-08-01T09:08:53;3.90;;;3.70;;
15669;SDS011;18524;45.190;5.732;2022-08-01T09:14:00;3.53;;;3.20;;
15669;SDS011;18524;45.190;5.732;2022-08-01T09:19:12;3.70;;;3.40;;
15669;SDS011;18524;45.190;5.732;2022-08-01T09:24:04;3.80;;;3.47;;
15669;SDS011;18524;45.190;5.732;2022-08-01T09:29:05;3.40;;;3.20;;
15669;SDS011;18524;45.190;5.732;2022-08-01T09:33:58;3.83;;;3.33;;
15669;SDS011;18524;45.190;5.732;2022-08-01T09:38:54;4.07;;;3.60;;
15669;SDS011;18524;45.190;5.732;2022-08-01T09:43:48;3.40;;;3.20;;
15669;SDS011;18524;45.190;5.732;2022-08-01T09:48:59;3.40;;;3.10;;
15669;SDS011;18524;45.190;5.732;2022-08-01T09:53:52;5.67;;;3.17;;
15669;SDS011;18524;45.190;5.732;2022-08-01T09:59:15;3.50;;;3.20;;
15669;SDS011;18524;45.190;5.732;2022-08-01T10:04:06;5.20;;;3.33;;
15669;SDS011;18524;45.190;5.732;2022-08-01T10:09:03;3.77;;;3.43;;
15669;SDS011;18524;45.190;5.732;2022-08-01T10:13:55;3.57;;;3.30;;
15669;SDS011;18524;45.190;5.732;2022-08-01T10:18:48;3.20;;;3.00;;
15669;SDS011;18524;45.190;5.732;2022-08-01T10:23:39;3.00;;;2.80;;
15669;SDS011;18524;45.190;5.732;2022-08-01T10:28:31;3.13;;;2.83;;
15669;SDS011;18524;45.190;5.732;2022-08-01T10:33:26;3.27;;;2.90;;
15669;SDS011;18524;45.190;5.732;2022-08-01T10:38:19;3.47;;;2.87;;
15669;SDS011;18524;45.190;5.732;2022-08-01T10:43:10;3.97;;;3.10;;
15669;SDS011;18524;45.190;5.732;2022-08-01T10:53:14;2.93;;;2.57;;
15669;SDS011;18524;45.190;5.732;2022-08-01T10:58:07;4.20;;;3.90;;
15669;SDS011;18524;45.190;5.732;2022-08-01T11:02:58;3.17;;;2.90;;
15669;SDS011;18524;45.190;5.732;2022-08-01T11:07:53;2.80;;;2.60;;
15669;SDS011;18524;45.190;5.732;2022-08-01T11:12:44;3.13;;;2.70;;
15669;SDS011;18524;45.190;5.732;2022-08-01T11:17:42;3.17;;;2.87;;
15669;SDS011;18524;45.190;5.732;2022-08-01T11:27:47;4.17;;;2.83;;
15669;SDS011;18524;45.190;5.732;2022-08-01T11:32:47;3.90;;;2.83;;
15669;SDS011;18524;45.190;5.732;2022-08-01T11:37:38;2.90;;;2.60;;
15669;SDS011;18524;45.190;5.732;2022-08-01T11:42:29;3.57;;;2.60;;
15669;SDS011;18524;45.190;5.732;2022-08-01T11:47:37;2.70;;;2.50;;
15669;SDS011;18524;45.190;5.732;2022-08-01T11:52:39;3.57;;;2.90;;
15669;SDS011;18524;45.190;5.732;2022-08-01T11:57:32;2.40;;;2.20;;
15669;SDS011;18524;45.190;5.732;2022-08-01T12:02:28;3.57;;;3.27;;
15669;SDS011;18524;45.190;5.732;2022-08-01T12:07:20;3.53;;;2.80;;
15669;SDS011;18524;45.190;5.732;2022-08-01T12:12:11;2.50;;;2.40;;
15669;SDS011;18524;45.190;5.732;2022-08-01T12:17:04;2.30;;;2.20;;
15669;SDS011;18524;45.190;5.732;2022-08-01T12:22:04;3.13;;;2.77;;
15669;SDS011;18524;45.190;5.732;2022-08-01T12:27:02;2.80;;;2.60;;
15669;SDS011;18524;45.190;5.732;2022-08-01T12:31:54;2.90;;;2.30;;
15669;SDS011;18524;45.190;5.732;2022-08-01T12:36:44;3.00;;;2.30;;
15669;SDS011;18524;45.190;5.732;2022-08-01T12:41:36;2.10;;;2.00;;
15669;SDS011;18524;45.190;5.732;2022-08-01T12:46:27;2.60;;;2.40;;
15669;SDS011;18524;45.190;5.732;2022-08-01T12:51:18;3.43;;;2.00;;
15669;SDS011;18524;45.190;5.732;2022-08-01T12:56:09;2.80;;;2.47;;
15669;SDS011;18524;45.190;5.732;2022-08-01T13:01:04;2.27;;;2.17;;
15669;SDS011;18524;45.190;5.732;2022-08-01T13:05:56;2.97;;;2.10;;
15669;SDS011;18524;45.190;5.732;2022-08-01T13:10:48;2.30;;;2.20;;
15669;SDS011;18524;45.190;5.732;2022-08-01T13:15:39;2.80;;;2.53;;
15669;SDS011;18524;45.190;5.732;2022-08-01T13:20:33;2.40;;;2.20;;
15669;SDS011;18524;45.190;5.732;2022-08-01T13:25:25;2.20;;;2.07;;
15669;SDS011;18524;45.190;5.732;2022-08-01T13:30:18;2.23;;;2.03;;
15669;SDS011;18524;45.190;5.732;2022-08-01T13:35:12;2.37;;;2.23;;
15669;SDS011;18524;45.190;5.732;2022-08-01T13:40:03;2.53;;;2.33;;
15669;SDS011;18524;45.190;5.732;2022-08-01T13:44:53;2.53;;;2.07;;
15669;SDS011;18524;45.190;5.732;2022-08-01T13:49:44;2.20;;;1.90;;
15669;SDS011;18524;45.190;5.732;2022-08-01T13:54:35;2.60;;;1.90;;
15669;SDS011;18524;45.190;5.732;2022-08-01T13:59:26;2.93;;;1.70;;
15669;SDS011;18524;45.190;5.732;2022-08-01T14:04:16;2.93;;;1.83;;
15669;SDS011;18524;45.190;5.732;2022-08-01T14:09:06;2.23;;;2.03;;
15669;SDS011;18524;45.190;5.732;2022-08-01T14:13:57;1.40;;;1.33;;
15669;SDS011;18524;45.190;5.732;2022-08-01T14:18:47;2.43;;;1.70;;
15669;SDS011;18524;45.190;5.732;2022-08-01T14:23:38;3.27;;;1.83;;
15669;SDS011;18524;45.190;5.732;2022-08-01T14:28:28;2.30;;;1.80;;
15669;SDS011;18524;45.190;5.732;2022-08-01T14:33:20;1.80;;;1.70;;
15669;SDS011;18524;45.190;5.732;2022-08-01T14:38:10;1.70;;;1.60;;
15669;SDS011;18524;45.190;5.732;2022-08-01T14:43:00;1.80;;;1.70;;
15669;SDS011;18524;45.190;5.732;2022-08-01T14:47:51;1.63;;;1.60;;
15669;SDS011;18524;45.190;5.732;2022-08-01T14:52:41;2.03;;;1.57;;
15669;SDS011;18524;45.190;5.732;2022-08-01T14:57:32;1.80;;;1.50;;
15669;SDS011;18524;45.190;5.732;2022-08-01T15:02:23;1.80;;;1.70;;
15669;SDS011;18524;45.190;5.732;2022-08-01T15:07:13;1.83;;;1.73;;
15669;SDS011;18524;45.190;5.732;2022-08-01T15:12:04;1.50;;;1.40;;
15669;SDS011;18524;45.190;5.732;2022-08-01T15:16:55;1.60;;;1.50;;
15669;SDS011;18524;45.190;5.732;2022-08-01T15:21:46;1.60;;;1.50;;
15669;SDS011;18524;45.190;5.732;2022-08-01T15:26:36;1.60;;;1.50;;
15669;SDS011;18524;45.190;5.732;2022-08-01T15:31:27;2.23;;;1.50;;
15669;SDS011;18524;45.190;5.732;2022-08-01T15:36:17;2.93;;;1.77;;
15669;SDS011;18524;45.190;5.732;2022-08-01T15:41:07;2.87;;;1.57;;
15669;SDS011;18524;45.190;5.732;2022-08-01T15:45:58;1.53;;;1.43;;
15669;SDS011;18524;45.190;5.732;2022-08-01T15:50:49;1.40;;;1.30;;
15669;SDS011;18524;45.190;5.732;2022-08-01T15:55:40;4.10;;;1.57;;
15669;SDS011;18524;45.190;5.732;2022-08-01T16:00:30;1.70;;;1.60;;
15669;SDS011;18524;45.190;5.732;2022-08-01T16:05:21;1.60;;;1.50;;
15669;SDS011;18524;45.190;5.732;2022-08-01T16:10:12;2.10;;;1.50;;
15669;SDS011;18524;45.190;5.732;2022-08-01T16:15:02;3.67;;;1.40;;
15669;SDS011;18524;45.190;5.732;2022-08-01T16:19:53;1.60;;;1.50;;
15669;SDS011;18524;45.190;5.732;2022-08-01T16:24:44;1.50;;;1.40;;
15669;SDS011;18524;45.190;5.732;2022-08-01T16:29:34;2.83;;;1.40;;
15669;SDS011;18524;45.190;5.732;2022-08-01T16:34:25;1.40;;;1.30;;
15669;SDS011;18524;45.190;5.732;2022-08-01T16:39:15;2.13;;;1.10;;
15669;SDS011;18524;45.190;5.732;2022-08-01T16:44:05;1.20;;;1.20;;
15669;SDS011;18524;45.190;5.732;2022-08-01T16:48:56;1.40;;;1.30;;
15669;SDS011;18524;45.190;5.732;2022-08-01T16:53:46;2.13;;;1.30;;
15669;SDS011;18524;45.190;5.732;2022-08-01T16:58:36;1.27;;;1.17;;
15669;SDS011;18524;45.190;5.732;2022-08-01T17:03:27;1.57;;;1.20;;
15669;SDS011;18524;45.190;5.732;2022-08-01T17:08:17;2.23;;;1.40;;
15669;SDS011;18524;45.190;5.732;2022-08-01T17:13:08;1.77;;;1.40;;
15669;SDS011;18524;45.190;5.732;2022-08-01T17:17:59;1.73;;;1.40;;
15669;SDS011;18524;45.190;5.732;2022-08-01T17:22:51;1.60;;;1.47;;
15669;SDS011;18524;45.190;5.732;2022-08-01T17:27:41;1.43;;;1.23;;
15669;SDS011;18524;45.190;5.732;2022-08-01T17:32:32;1.60;;;1.50;;
15669;SDS011;18524;45.190;5.732;2022-08-01T17:37:24;1.10;;;1.10;;
15669;SDS011;18524;45.190;5.732;2022-08-01T17:42:14;1.60;;;1.50;;
15669;SDS011;18524;45.190;5.732;2022-08-01T17:47:04;1.40;;;1.30;;
15669;SDS011;18524;45.190;5.732;2022-08-01T17:51:55;1.13;;;1.10;;
15669;SDS011;18524;45.190;5.732;2022-08-01T17:56:45;1.87;;;1.40;;
15669;SDS011;18524;45.190;5.732;2022-08-01T18:01:36;1.57;;;1.47;;
15669;SDS011;18524;45.190;5.732;2022-08-01T18:06:26;2.00;;;1.60;;
15669;SDS011;18524;45.190;5.732;2022-08-01T18:11:17;1.60;;;1.50;;
15669;SDS011;18524;45.190;5.732;2022-08-01T18:16:08;1.60;;;1.50;;
15669;SDS011;18524;45.190;5.732;2022-08-01T18:21:01;2.90;;;1.67;;
15669;SDS011;18524;45.190;5.732;2022-08-01T18:25:52;2.63;;;2.43;;
15669;SDS011;18524;45.190;5.732;2022-08-01T18:30:43;1.93;;;1.83;;
15669;SDS011;18524;45.190;5.732;2022-08-01T18:35:33;1.93;;;1.80;;
15669;SDS011;18524;45.190;5.732;2022-08-01T18:40:24;2.00;;;1.90;;
15669;SDS011;18524;45.190;5.732;2022-08-01T18:45:14;2.60;;;1.77;;
15669;SDS011;18524;45.190;5.732;2022-08-01T18:50:05;1.70;;;1.60;;
15669;SDS011;18524;45.190;5.732;2022-08-01T18:54:56;1.53;;;1.43;;
15669;SDS011;18524;45.190;5.732;2022-08-01T18:59:47;1.50;;;1.40;;
15669;SDS011;18524;45.190;5.732;2022-08-01T19:04:38;2.10;;;2.00;;
15669;SDS011;18524;45.190;5.732;2022-08-01T19:09:28;2.93;;;1.90;;
15669;SDS011;18524;45.190;5.732;2022-08-01T19:14:18;2.20;;;1.60;;
15669;SDS011;18524;45.190;5.732;2022-08-01T19:19:09;2.50;;;1.77;;
15669;SDS011;18524;45.190;5.732;2022-08-01T19:23:59;1.80;;;1.70;;
15669;SDS011;18524;45.190;5.732;2022-08-01T19:29:11;3.73;;;1.63;;
15669;SDS011;18524;45.190;5.732;2022-08-01T19:34:11;2.20;;;1.80;;
15669;SDS011;18524;45.190;5.732;2022-08-01T19:39:02;1.73;;;1.63;;
15669;SDS011;18524;45.190;5.732;2022-08-01T19:43:53;1.87;;;1.77;;
15669;SDS011;18524;45.190;5.732;2022-08-01T19:48:44;1.80;;;1.70;;
15669;SDS011;18524;45.190;5.732;2022-08-01T19:53:37;1.70;;;1.60;;
15669;SDS011;18524;45.190;5.732;2022-08-01T19:58:31;1.90;;;1.80;;
15669;SDS011;18524;45.190;5.732;2022-08-01T20:03:33;2.43;;;1.63;;
15669;SDS011;18524;45.190;5.732;2022-08-01T20:08:24;2.83;;;2.00;;
15669;SDS011;18524;45.190;5.732;2022-08-01T20:13:15;1.80;;;1.70;;
15669;SDS011;18524;45.190;5.732;2022-08-01T20:18:06;1.80;;;1.70;;
15669;SDS011;18524;45.190;5.732;2022-08-01T20:22:56;1.90;;;1.80;;
15669;SDS011;18524;45.190;5.732;2022-08-01T20:27:47;2.10;;;2.00;;
15669;SDS011;18524;45.190;5.732;2022-08-01T20:32:37;2.10;;;1.90;;
15669;SDS011;18524;45.190;5.732;2022-08-01T20:37:32;3.13;;;2.13;;
15669;SDS011;18524;45.190;5.732;2022-08-01T20:42:29;2.50;;;2.00;;
15669;SDS011;18524;45.190;5.732;2022-08-01T20:47:21;2.13;;;1.70;;
15669;SDS011;18524;45.190;5.732;2022-08-01T20:52:13;1.80;;;1.70;;
15669;SDS011;18524;45.190;5.732;2022-08-01T20:57:08;1.77;;;1.67;;
15669;SDS011;18524;45.190;5.732;2022-08-01T21:07:03;2.03;;;1.73;;
15669;SDS011;18524;45.190;5.732;2022-08-01T21:12:03;2.40;;;1.63;;
15669;SDS011;18524;45.190;5.732;2022-08-01T21:16:56;3.33;;;2.03;;
15669;SDS011;18524;45.190;5.732;2022-08-01T21:22:05;1.77;;;1.67;;
15669;SDS011;18524;45.190;5.732;2022-08-01T21:27:16;1.90;;;1.80;;
15669;SDS011;18524;45.190;5.732;2022-08-01T21:32:07;2.50;;;2.30;;
15669;SDS011;18524;45.190;5.732;2022-08-01T21:37:06;1.90;;;1.80;;
15669;SDS011;18524;45.190;5.732;2022-08-01T21:41:58;2.30;;;2.10;;
15669;SDS011;18524;45.190;5.732;2022-08-01T21:46:48;2.33;;;2.13;;
15669;SDS011;18524;45.190;5.732;2022-08-01T21:51:50;2.27;;;2.10;;
15669;SDS011;18524;45.190;5.732;2022-08-01T22:01:47;2.00;;;1.90;;
15669;SDS011;18524;45.190;5.732;2022-08-01T22:06:42;1.80;;;1.70;;
15669;SDS011;18524;45.190;5.732;2022-08-01T22:11:34;4.07;;;1.77;;
15669;SDS011;18524;45.190;5.732;2022-08-01T22:16:27;1.70;;;1.60;;
15669;SDS011;18524;45.190;5.732;2022-08-01T22:21:20;2.13;;;1.73;;
15669;SDS011;18524;45.190;5.732;2022-08-01T22:26:11;1.83;;;1.60;;
15669;SDS011;18524;45.190;5.732;2022-08-01T22:31:02;1.97;;;1.87;;
15669;SDS011;18524;45.190;5.732;2022-08-01T22:35:52;2.00;;;1.90;;
15669;SDS011;18524;45.190;5.732;2022-08-01T22:40:47;2.10;;;2.00;;
15669;SDS011;18524;45.190;5.732;2022-08-01T22:51:24;2.13;;;2.03;;
15669;SDS011;18524;45.190;5.732;2022-08-01T22:56:21;1.90;;;1.80;;
15669;SDS011;18524;45.190;5.732;2022-08-01T23:01:15;2.30;;;2.10;;
15669;SDS011;18524;45.190;5.732;2022-08-01T23:06:12;2.20;;;2.07;;
15669;SDS011;18524;45.190;5.732;2022-08-01T23:11:09;1.90;;;1.80;;
15669;SDS011;18524;45.190;5.732;2022-08-01T23:16:00;2.03;;;1.90;;
15669;SDS011;18524;45.190;5.732;2022-08-01T23:20:53;2.30;;;2.13;;
15669;SDS011;18524;45.190;5.732;2022-08-01T23:25:47;2.10;;;1.90;;
15669;SDS011;18524;45.190;5.732;2022-08-01T23:30:38;1.70;;;1.60;;
15669;SDS011;18524;45.190;5.732;2022-08-01T23:35:29;2.63;;;1.80;;
15669;SDS011;18524;45.190;5.732;2022-08-01T23:40:20;1.60;;;1.50;;
15669;SDS011;18524;45.190;5.732;2022-08-01T23:45:11;2.87;;;1.67;;
15669;SDS011;18524;45.190;5.732;2022-08-01T23:50:01;2.03;;;1.83;;
15669;SDS011;18524;45.190;5.732;2022-08-01T23:54:52;2.67;;;1.90;;
15669;SDS011;18524;45.190;5.732;2022-08-01T23:59:43;1.90;;;1.80;;
